createdAt,value
2022-10-10T00:00:10.777Z,100.00
2022-10-10T00:03:12.789Z,100.00
2022-10-10T00:06:15.959Z,100.00
2022-10-10T00:09:17.463Z,100.00
2022-10-10T00:12:18.957Z,100.00
2022-10-10T00:15:20.516Z,100.00
2022-10-10T00:18:22.011Z,100.00
2022-10-10T00:21:23.737Z,100.00
2022-10-10T00:24:25.328Z,100.00
2022-10-10T00:27:26.754Z,100.00
2022-10-10T00:30:28.420Z,100.00
2022-10-10T00:33:29.841Z,100.00
2022-10-10T00:36:31.304Z,100.00
2022-10-10T00:39:32.732Z,100.00
2022-10-10T00:42:34.489Z,100.00
2022-10-10T00:45:35.878Z,100.00
2022-10-10T00:48:41.055Z,100.00
2022-10-10T00:51:44.877Z,100.00
2022-10-10T00:54:46.357Z,100.00
2022-10-10T00:57:48.993Z,100.00
2022-10-10T01:00:50.942Z,100.00
2022-10-10T01:03:56.832Z,100.00
2022-10-10T01:06:59.642Z,100.00
2022-10-10T01:10:07.331Z,100.00
2022-10-10T01:13:27.841Z,100.00
2022-10-10T01:16:43.252Z,100.00
2022-10-10T01:20:22.639Z,100.00
2022-10-10T01:23:48.582Z,100.00
2022-10-10T01:27:07.552Z,100.00
2022-10-10T01:30:12.491Z,100.00
2022-10-10T01:33:18.237Z,100.00
2022-10-10T01:36:25.980Z,100.00
2022-10-10T01:39:40.656Z,100.00
2022-10-10T01:42:50.697Z,100.00
2022-10-10T01:45:53.841Z,100.00
2022-10-10T01:48:58.162Z,100.00
2022-10-10T01:52:27.638Z,100.00
2022-10-10T01:55:44.240Z,100.00
2022-10-10T01:58:55.296Z,100.00
2022-10-10T02:02:02.732Z,100.00
2022-10-10T02:05:29.068Z,100.00
2022-10-10T02:08:42.148Z,100.00
2022-10-10T02:11:44.755Z,100.00
2022-10-10T02:14:50.621Z,100.00
2022-10-10T02:17:53.639Z,100.00
2022-10-10T02:20:55.830Z,100.00
2022-10-10T02:24:03.947Z,100.00
2022-10-10T02:27:11.181Z,100.00
2022-10-10T02:30:14.414Z,100.00
2022-10-10T02:33:32.498Z,100.00
2022-10-10T02:36:34.955Z,100.00
2022-10-10T02:39:41.249Z,100.00
2022-10-10T02:42:45.104Z,100.00
2022-10-10T02:45:46.873Z,100.00
2022-10-10T02:48:48.444Z,100.00
2022-10-10T02:51:50.316Z,100.00
2022-10-10T02:54:51.776Z,100.00
2022-10-10T02:57:53.528Z,100.00
2022-10-10T03:00:55.052Z,100.00
2022-10-10T03:03:56.742Z,100.00
2022-10-10T03:06:58.249Z,100.00
2022-10-10T03:09:59.736Z,100.00
2022-10-10T03:13:01.160Z,100.00
2022-10-10T03:16:03.407Z,100.00
2022-10-10T03:19:08.172Z,100.00
2022-10-10T03:22:10.009Z,100.00
2022-10-10T03:25:11.560Z,100.00
2022-10-10T03:28:13.414Z,100.00
2022-10-10T03:31:14.919Z,100.00
2022-10-10T03:34:16.493Z,100.00
2022-10-10T03:37:17.996Z,100.00
2022-10-10T03:40:19.486Z,100.00
2022-10-10T03:43:20.984Z,100.00
2022-10-10T03:46:22.692Z,100.00
2022-10-10T03:49:24.246Z,100.00
2022-10-10T03:52:25.712Z,100.00
2022-10-10T03:55:27.292Z,100.00
2022-10-10T03:58:28.764Z,100.00
2022-10-10T04:01:30.769Z,100.00
2022-10-10T04:04:32.691Z,100.00
2022-10-10T04:07:34.233Z,100.00
2022-10-10T04:10:35.659Z,100.00
2022-10-10T04:13:37.108Z,100.00
2022-10-10T04:16:38.610Z,100.00
2022-10-10T04:19:40.042Z,100.00
2022-10-10T04:22:42.668Z,100.00
2022-10-10T04:25:44.683Z,100.00
2022-10-10T04:28:46.319Z,100.00
2022-10-10T04:31:47.867Z,100.00
2022-10-10T04:34:49.617Z,100.00
2022-10-10T04:37:51.295Z,100.00
2022-10-10T04:40:52.850Z,100.00
2022-10-10T04:43:54.356Z,100.00
2022-10-10T04:46:56.469Z,100.00
2022-10-10T04:49:57.923Z,100.00
2022-10-10T04:52:59.433Z,100.00
2022-10-10T04:56:00.869Z,100.00
2022-10-10T04:59:02.401Z,100.00
2022-10-10T05:02:04.112Z,100.00
2022-10-10T05:05:06.281Z,100.00
2022-10-10T05:08:07.942Z,100.00
2022-10-10T05:11:09.413Z,100.00
2022-10-10T05:14:10.932Z,100.00
2022-10-10T05:17:12.656Z,100.00
2022-10-10T05:20:14.228Z,100.00
2022-10-10T05:23:16.869Z,100.00
2022-10-10T05:26:20.028Z,100.00
2022-10-10T05:29:21.745Z,100.00
2022-10-10T05:32:23.855Z,100.00
2022-10-10T05:35:25.342Z,100.00
2022-10-10T05:38:26.945Z,100.00
2022-10-10T05:41:28.531Z,100.00
2022-10-10T05:44:30.153Z,100.00
2022-10-10T05:47:31.824Z,100.00
2022-10-10T05:50:38.524Z,100.00
2022-10-10T05:53:40.046Z,100.00
2022-10-10T05:56:41.901Z,100.00
2022-10-10T05:59:43.393Z,100.00
2022-10-10T06:02:44.846Z,100.00
2022-10-10T06:05:49.992Z,100.00
2022-10-10T06:08:52.230Z,100.00
2022-10-10T06:11:53.860Z,100.00
2022-10-10T06:14:55.860Z,100.00
2022-10-10T06:17:57.473Z,100.00
2022-10-10T06:21:03.960Z,100.00
2022-10-10T06:24:06.913Z,100.00
2022-10-10T06:27:08.580Z,100.00
2022-10-10T06:30:10.536Z,100.00
2022-10-10T06:33:12.950Z,100.00
2022-10-10T06:36:15.449Z,100.00
2022-10-10T06:39:17.053Z,100.00
2022-10-10T06:42:18.542Z,100.00
2022-10-10T06:45:20.082Z,100.00
2022-10-10T06:48:21.620Z,100.00
2022-10-10T06:51:23.167Z,100.00
2022-10-10T06:54:24.609Z,100.00
2022-10-10T06:57:26.115Z,100.00
2022-10-10T07:00:27.625Z,100.00
2022-10-10T07:03:30.679Z,100.00
2022-10-10T07:06:34.851Z,100.00
2022-10-10T07:09:36.690Z,100.00
2022-10-10T07:12:52.332Z,100.00
2022-10-10T07:15:54.080Z,100.00
2022-10-10T07:18:55.643Z,100.00
2022-10-10T07:21:57.109Z,100.00
2022-10-10T07:25:00.859Z,100.00
2022-10-10T07:28:02.309Z,100.00
2022-10-10T07:31:06.814Z,100.00
2022-10-10T07:34:08.353Z,100.00
2022-10-10T07:37:09.939Z,100.00
2022-10-10T07:40:11.690Z,100.00
2022-10-10T07:43:13.205Z,100.00
2022-10-10T07:46:18.571Z,100.00
2022-10-10T07:49:20.172Z,100.00
2022-10-10T07:52:21.937Z,100.00
2022-10-10T07:55:23.531Z,100.00
2022-10-10T07:58:25.183Z,100.00
2022-10-10T08:01:26.942Z,100.00
2022-10-10T08:04:28.470Z,100.00
2022-10-10T08:07:30.253Z,100.00
2022-10-10T08:10:31.702Z,100.00
2022-10-10T08:13:33.868Z,100.00
2022-10-10T08:16:35.636Z,100.00
2022-10-10T08:19:37.136Z,100.00
2022-10-10T08:22:38.632Z,100.00
2022-10-10T08:25:40.137Z,100.00
2022-10-10T08:28:42.057Z,100.00
2022-10-10T08:31:43.607Z,100.00
2022-10-10T08:34:45.402Z,100.00
2022-10-10T08:37:46.873Z,100.00
2022-10-10T08:40:53.291Z,100.00
2022-10-10T08:44:10.787Z,100.00
2022-10-10T08:47:18.312Z,100.00
2022-10-10T08:50:32.955Z,100.00
2022-10-10T08:53:46.641Z,100.00
2022-10-10T08:56:50.205Z,100.00
2022-10-10T08:59:55.054Z,100.00
2022-10-10T09:02:58.975Z,100.00
2022-10-10T09:06:15.784Z,100.00
2022-10-10T09:09:24.410Z,100.00
2022-10-10T09:13:07.265Z,98.89
2022-10-10T09:16:45.241Z,96.65
2022-10-10T09:19:57.225Z,94.82
2022-10-10T09:23:21.819Z,92.22
2022-10-10T09:26:25.876Z,90.59
2022-10-10T09:29:41.569Z,89.44
2022-10-10T09:32:48.568Z,87.89
2022-10-10T09:35:53.207Z,85.55
2022-10-10T09:39:00.372Z,82.87
2022-10-10T09:42:05.228Z,80.23
2022-10-10T09:45:17.725Z,77.75
2022-10-10T09:48:22.197Z,76.57
2022-10-10T09:51:23.643Z,76.30
2022-10-10T09:54:25.131Z,77.03
2022-10-10T09:57:32.823Z,77.71
2022-10-10T10:00:36.654Z,76.49
2022-10-10T10:03:38.249Z,74.82
2022-10-10T10:06:44.740Z,73.77
2022-10-10T10:09:57.325Z,72.82
2022-10-10T10:12:58.817Z,72.67
2022-10-10T10:16:02.659Z,72.82
2022-10-10T10:19:04.806Z,73.07
2022-10-10T10:22:45.278Z,71.29
2022-10-10T10:26:06.573Z,71.33
2022-10-10T10:29:29.849Z,69.46
2022-10-10T10:33:06.742Z,68.90
2022-10-10T10:36:21.608Z,69.50
2022-10-10T10:39:39.750Z,69.11
2022-10-10T10:42:51.660Z,68.32
2022-10-10T10:45:56.205Z,67.25
2022-10-10T10:49:02.723Z,66.72
2022-10-10T10:52:29.145Z,65.51
2022-10-10T10:56:11.448Z,64.21
2022-10-10T11:00:16.614Z,63.72
2022-10-10T11:03:34.933Z,63.79
2022-10-10T11:07:19.676Z,62.67
2022-10-10T11:10:38.480Z,63.11
2022-10-10T11:13:42.810Z,63.42
2022-10-10T11:16:55.114Z,63.44
2022-10-10T11:20:03.225Z,62.40
2022-10-10T11:23:15.945Z,61.18
2022-10-10T11:26:25.492Z,60.14
2022-10-10T11:29:35.356Z,59.83
2022-10-10T11:33:05.487Z,59.90
2022-10-10T11:36:16.591Z,60.17
2022-10-10T11:39:30.172Z,60.91
2022-10-10T11:42:45.257Z,60.51
2022-10-10T11:45:54.465Z,60.02
2022-10-10T11:49:00.098Z,59.09
2022-10-10T11:52:33.488Z,58.42
2022-10-10T11:55:47.193Z,58.06
2022-10-10T11:58:56.383Z,57.53
2022-10-10T12:02:01.670Z,57.22
2022-10-10T12:05:07.840Z,57.16
2022-10-10T12:08:18.149Z,57.38
2022-10-10T12:11:25.975Z,56.37
2022-10-10T12:14:31.253Z,55.80
2022-10-10T12:17:36.083Z,55.87
2022-10-10T12:20:37.879Z,55.53
2022-10-10T12:23:41.154Z,55.23
2022-10-10T12:26:54.547Z,55.24
2022-10-10T12:29:55.996Z,55.55
2022-10-10T12:32:57.961Z,54.54
2022-10-10T12:36:18.388Z,53.82
2022-10-10T12:39:19.808Z,53.77
2022-10-10T12:42:39.142Z,53.43
2022-10-10T12:45:40.552Z,52.98
2022-10-10T12:48:44.378Z,52.71
2022-10-10T12:52:03.371Z,52.84
2022-10-10T12:55:09.466Z,52.70
2022-10-10T12:58:26.565Z,52.47
2022-10-10T13:01:34.281Z,52.20
2022-10-10T13:04:35.912Z,51.09
2022-10-10T13:07:38.324Z,50.78
2022-10-10T13:10:39.838Z,51.23
2022-10-10T13:13:50.028Z,50.78
2022-10-10T13:16:51.936Z,50.39
2022-10-10T13:19:54.462Z,49.90
2022-10-10T13:22:56.692Z,49.69
2022-10-10T13:25:59.805Z,48.67
2022-10-10T13:29:12.161Z,48.10
2022-10-10T13:32:17.333Z,48.34
2022-10-10T13:35:24.745Z,48.53
2022-10-10T13:38:26.686Z,48.45
2022-10-10T13:41:28.865Z,48.06
2022-10-10T13:44:46.039Z,47.92
2022-10-10T13:47:55.368Z,48.29
2022-10-10T13:51:07.400Z,48.47
2022-10-10T13:54:42.862Z,48.42
2022-10-10T13:57:44.627Z,48.33
2022-10-10T14:00:55.240Z,48.23
2022-10-10T14:04:02.877Z,48.19
2022-10-10T14:07:18.195Z,48.38
2022-10-10T14:10:25.125Z,48.30
2022-10-10T14:13:27.841Z,48.56
2022-10-10T14:16:32.432Z,48.72
2022-10-10T14:19:34.127Z,49.20
2022-10-10T14:22:35.761Z,49.17
2022-10-10T14:25:39.871Z,49.16
2022-10-10T14:28:41.975Z,49.13
2022-10-10T14:31:45.055Z,48.99
2022-10-10T14:34:47.304Z,49.09
2022-10-10T14:37:48.817Z,49.20
2022-10-10T14:40:51.146Z,50.14
2022-10-10T14:43:52.625Z,50.54
2022-10-10T14:46:54.148Z,50.84
2022-10-10T14:49:57.854Z,51.54
2022-10-10T14:52:59.447Z,50.85
2022-10-10T14:56:00.916Z,50.00
2022-10-10T14:59:02.517Z,49.77
2022-10-10T15:02:04.054Z,49.18
2022-10-10T15:05:06.337Z,49.26
2022-10-10T15:08:08.170Z,49.78
2022-10-10T15:11:15.369Z,49.83
2022-10-10T15:14:16.893Z,49.02
2022-10-10T15:17:18.634Z,49.57
2022-10-10T15:20:23.979Z,49.68
2022-10-10T15:23:26.921Z,49.88
2022-10-10T15:26:28.429Z,50.07
2022-10-10T15:29:29.885Z,51.12
2022-10-10T15:32:31.383Z,51.00
2022-10-10T15:35:50.331Z,51.18
2022-10-10T15:38:55.351Z,50.07
2022-10-10T15:41:57.685Z,49.96
2022-10-10T15:44:59.256Z,50.95
2022-10-10T15:48:00.777Z,51.37
2022-10-10T15:51:07.019Z,51.85
2022-10-10T15:54:08.749Z,52.54
2022-10-10T15:57:10.300Z,53.70
2022-10-10T16:00:12.459Z,54.83
2022-10-10T16:03:14.119Z,56.09
2022-10-10T16:06:18.239Z,58.06
2022-10-10T16:09:28.147Z,60.18
2022-10-10T16:12:30.449Z,62.07
2022-10-10T16:15:32.561Z,64.07
2022-10-10T16:18:39.976Z,65.22
2022-10-10T16:21:42.474Z,66.39
2022-10-10T16:24:53.980Z,67.25
2022-10-10T16:28:05.549Z,68.81
2022-10-10T16:31:09.998Z,70.14
2022-10-10T16:34:12.862Z,71.29
2022-10-10T16:37:14.401Z,72.78
2022-10-10T16:40:16.021Z,73.77
2022-10-10T16:43:17.597Z,74.96
2022-10-10T16:46:22.684Z,76.62
2022-10-10T16:49:24.111Z,77.61
2022-10-10T16:52:25.620Z,78.44
2022-10-10T16:55:27.159Z,79.38
2022-10-10T16:58:29.560Z,80.15
2022-10-10T17:01:31.569Z,80.97
2022-10-10T17:04:33.310Z,81.59
2022-10-10T17:07:36.319Z,81.99
2022-10-10T17:10:37.828Z,82.84
2022-10-10T17:13:39.305Z,83.98
2022-10-10T17:20:02.858Z,85.56
2022-10-10T17:23:04.614Z,86.37
2022-10-10T17:26:11.917Z,87.11
2022-10-10T17:29:14.278Z,87.48
2022-10-10T17:32:15.843Z,88.33
2022-10-10T17:35:17.477Z,89.05
2022-10-10T17:38:38.329Z,89.31
2022-10-10T17:41:41.000Z,89.90
2022-10-10T17:44:49.579Z,90.01
2022-10-10T17:47:53.920Z,90.91
2022-10-10T17:50:56.470Z,90.58
2022-10-10T17:54:03.124Z,91.19
2022-10-10T17:57:04.686Z,91.63
2022-10-10T18:00:06.756Z,92.48
2022-10-10T18:03:09.191Z,92.91
2022-10-10T18:06:17.027Z,93.13
2022-10-10T18:09:18.729Z,93.22
2022-10-10T18:12:20.436Z,93.14
2022-10-10T18:15:22.484Z,92.83
2022-10-10T18:18:23.968Z,92.50
2022-10-10T18:21:25.897Z,92.96
2022-10-10T18:24:27.417Z,93.54
2022-10-10T18:27:30.191Z,94.17
2022-10-10T18:30:33.142Z,93.93
2022-10-10T18:33:34.827Z,93.94
2022-10-10T18:36:39.276Z,93.87
2022-10-10T18:39:42.224Z,94.13
2022-10-10T18:42:43.751Z,94.66
2022-10-10T18:45:45.309Z,94.54
2022-10-10T18:48:51.517Z,95.05
2022-10-10T18:51:55.558Z,94.70
2022-10-10T18:54:57.136Z,95.07
2022-10-10T18:57:59.157Z,96.98
2022-10-10T19:01:02.998Z,97.65
2022-10-10T19:04:07.488Z,98.26
2022-10-10T19:07:08.899Z,97.83
2022-10-10T19:10:10.380Z,98.13
2022-10-10T19:13:12.820Z,99.08
2022-10-10T19:16:14.529Z,98.78
2022-10-10T19:19:18.129Z,97.87
2022-10-10T19:22:19.588Z,98.91
2022-10-10T19:25:21.056Z,98.49
2022-10-10T19:28:22.843Z,98.23
2022-10-10T19:31:24.329Z,98.25
2022-10-10T19:34:25.892Z,98.92
2022-10-10T19:37:27.378Z,99.32
2022-10-10T19:40:28.981Z,99.43
2022-10-10T19:43:30.456Z,98.96
2022-10-10T19:46:36.682Z,98.81
2022-10-10T19:49:38.847Z,98.86
2022-10-10T19:52:40.384Z,98.99
2022-10-10T19:55:41.967Z,99.52
2022-10-10T19:58:43.521Z,100.00
2022-10-10T20:01:45.171Z,100.00
2022-10-10T20:04:46.789Z,100.00
2022-10-10T20:07:51.685Z,100.00
2022-10-10T20:10:53.496Z,100.00
2022-10-10T20:13:55.840Z,100.00
2022-10-10T20:16:57.790Z,100.00
2022-10-10T20:19:59.785Z,100.00
2022-10-10T20:23:02.064Z,100.00
2022-10-10T20:26:08.848Z,100.00
2022-10-10T20:29:11.957Z,100.00
2022-10-10T20:32:13.457Z,100.00
2022-10-10T20:35:22.933Z,100.00
2022-10-10T20:38:24.553Z,100.00
2022-10-10T20:41:29.802Z,100.00
2022-10-10T20:44:33.765Z,100.00
2022-10-10T20:47:35.383Z,100.00
2022-10-10T20:50:38.148Z,100.00
2022-10-10T20:53:43.782Z,100.00
2022-10-10T20:56:45.420Z,100.00
2022-10-10T20:59:46.844Z,100.00
2022-10-10T21:02:49.348Z,100.00
2022-10-10T21:06:01.336Z,100.00
2022-10-10T21:09:05.999Z,100.00
2022-10-10T21:12:07.539Z,100.00
2022-10-10T21:15:09.387Z,100.00
2022-10-10T21:18:10.911Z,100.00
2022-10-10T21:21:13.138Z,100.00
2022-10-10T21:24:14.941Z,100.00
2022-10-10T21:27:16.985Z,100.00
2022-10-10T21:30:18.589Z,100.00
2022-10-10T21:33:20.165Z,100.00
2022-10-10T21:36:23.994Z,100.00
2022-10-10T21:39:25.422Z,100.00
2022-10-10T21:42:29.647Z,100.00
2022-10-10T21:45:35.502Z,100.00
2022-10-10T21:48:37.513Z,100.00
2022-10-10T21:51:42.128Z,100.00
2022-10-10T21:54:43.688Z,100.00
2022-10-10T21:57:45.219Z,100.00
2022-10-10T22:00:46.771Z,100.00
2022-10-10T22:03:50.172Z,100.00
2022-10-10T22:06:51.641Z,100.00
2022-10-10T22:09:53.117Z,100.00
2022-10-10T22:12:55.038Z,100.00
2022-10-10T22:15:57.128Z,100.00
2022-10-10T22:18:59.242Z,100.00
2022-10-10T22:22:00.744Z,100.00
2022-10-10T22:25:02.632Z,100.00
2022-10-10T22:28:06.314Z,100.00
2022-10-10T22:31:09.713Z,100.00
2022-10-10T22:34:11.709Z,100.00
2022-10-10T22:37:13.237Z,100.00
2022-10-10T22:40:14.842Z,100.00
2022-10-10T22:43:16.345Z,100.00
2022-10-10T22:46:17.959Z,100.00
2022-10-10T22:49:19.444Z,100.00
2022-10-10T22:52:20.883Z,100.00
2022-10-10T22:55:22.437Z,100.00
2022-10-10T22:58:24.428Z,100.00
2022-10-10T23:01:26.543Z,100.00
2022-10-10T23:04:28.125Z,100.00
2022-10-10T23:07:29.601Z,100.00
2022-10-10T23:10:31.033Z,100.00
2022-10-10T23:13:32.889Z,100.00
2022-10-10T23:16:36.502Z,100.00
2022-10-10T23:19:41.264Z,100.00
2022-10-10T23:22:42.778Z,100.00
2022-10-10T23:25:46.391Z,100.00
2022-10-10T23:28:50.004Z,100.00
2022-10-10T23:31:51.617Z,100.00
2022-10-10T23:34:53.102Z,100.00
2022-10-10T23:37:56.453Z,100.00
2022-10-10T23:40:57.912Z,100.00
2022-10-10T23:43:59.405Z,100.00
2022-10-10T23:47:00.888Z,100.00
2022-10-10T23:50:02.394Z,100.00
2022-10-10T23:53:04.304Z,100.00
2022-10-10T23:56:06.375Z,100.00
2022-10-10T23:59:08.191Z,100.00
